Time;durP1;ratioP1;P1;durP2;ratioP2;P2;SDS_P1;SDS_P2;PMS_P1;PMS_P2;Temp;Humidity;BMP_temperature;BMP_pressure;BME280_temperature;BME280_humidity;BME280_pressure;Samples;Min_cycle;Max_cycle;Signal;HPM_P1;HPM_P2
2022/07/29 00:01:47;;;;;;;11.00;3.33;;;19.00;97.80;;;;;;5033780;28;20426;-47
2022/07/29 00:04:14;;;;;;;5.83;2.77;;;18.90;97.90;;;;;;5034060;28;20508;-46
2022/07/29 00:06:44;;;;;;;5.40;3.10;;;18.90;98.80;;;;;;5034682;28;20461;-44
2022/07/29 00:09:11;;;;;;;5.43;2.87;;;18.90;99.40;;;;;;5033847;28;20477;-47
2022/07/29 00:11:38;;;;;;;3.23;2.80;;;18.90;99.60;;;;;;5033772;28;20493;-46
2022/07/29 00:14:05;;;;;;;4.83;2.73;;;18.90;99.90;;;;;;5033999;28;20525;-45
2022/07/29 00:16:31;;;;;;;4.13;3.40;;;18.90;99.90;;;;;;5034077;28;20422;-47
2022/07/29 00:18:58;;;;;;;6.83;3.40;;;18.90;99.90;;;;;;5023354;28;20459;-49
2022/07/29 00:21:25;;;;;;;6.10;3.40;;;18.80;99.90;;;;;;5028967;28;20441;-49
2022/07/29 00:23:53;;;;;;;4.50;2.63;;;18.80;99.90;;;;;;5033337;28;20472;-51
2022/07/29 00:26:20;;;;;;;3.03;2.40;;;18.80;99.90;;;;;;5033271;28;20434;-47
2022/07/29 00:28:47;;;;;;;5.83;2.80;;;18.80;99.90;;;;;;5033554;28;20445;-50
2022/07/29 00:31:14;;;;;;;4.07;3.40;;;18.80;99.90;;;;;;5033447;28;20491;-49
2022/07/29 00:33:42;;;;;;;5.97;3.10;;;18.70;99.90;;;;;;5033646;28;20445;-47
2022/07/29 00:36:08;;;;;;;7.90;3.40;;;18.70;99.90;;;;;;5033597;28;20848;-47
2022/07/29 00:38:35;;;;;;;6.23;3.30;;;18.70;99.90;;;;;;5033559;28;20444;-48
2022/07/29 00:41:03;;;;;;;3.53;2.80;;;18.60;99.90;;;;;;5033281;28;20281;-49
2022/07/29 00:43:29;;;;;;;4.97;3.10;;;18.60;99.90;;;;;;5029468;28;20449;-47
2022/07/29 00:45:58;;;;;;;5.37;3.70;;;18.50;99.90;;;;;;5021304;28;20465;-48
2022/07/29 00:48:25;;;;;;;3.50;3.20;;;18.50;99.90;;;;;;5033695;28;20476;-51
2022/07/29 00:50:52;;;;;;;5.10;3.40;;;18.50;99.90;;;;;;5033566;28;20541;-50
2022/07/29 00:53:20;;;;;;;7.20;3.20;;;18.50;99.90;;;;;;5033737;28;20607;-48
2022/07/29 00:55:47;;;;;;;4.70;3.60;;;18.50;99.90;;;;;;5032638;28;20533;-50
2022/07/29 00:58:15;;;;;;;6.93;3.70;;;18.40;99.90;;;;;;5033292;28;20504;-49
2022/07/29 01:00:44;;;;;;;7.10;3.70;;;18.40;99.90;;;;;;5033407;28;20464;-45
2022/07/29 01:03:11;;;;;;;5.87;4.00;;;18.40;99.90;;;;;;5032564;28;20455;-45
2022/07/29 01:05:41;;;;;;;4.47;3.10;;;18.40;99.90;;;;;;5032839;28;20461;-49
2022/07/29 01:08:08;;;;;;;5.10;3.07;;;18.40;99.90;;;;;;5023816;28;20639;-51
2022/07/29 01:10:40;;;;;;;5.67;3.87;;;18.40;99.90;;;;;;5024691;28;20513;-51
2022/07/29 01:13:08;;;;;;;7.30;3.57;;;18.40;99.90;;;;;;5033017;28;20473;-51
2022/07/29 01:15:44;;;;;;;4.00;3.60;;;18.40;99.90;;;;;;5032640;28;20465;-49
2022/07/29 01:18:17;;;;;;;5.83;3.70;;;18.30;99.90;;;;;;5032872;28;20423;-47
2022/07/29 01:21:08;;;;;;;6.87;3.50;;;18.30;99.90;;;;;;5032904;27;20465;-48
2022/07/29 01:24:12;;;;;;;3.90;3.20;;;18.30;99.90;;;;;;5032974;28;20508;-48
2022/07/29 01:26:53;;;;;;;2.83;2.50;;;18.30;99.90;;;;;;5023881;28;20491;-51
2022/07/29 01:29:27;;;;;;;5.90;3.33;;;18.20;99.90;;;;;;5032913;28;20420;-49
2022/07/29 01:32:02;;;;;;;9.07;4.07;;;18.20;99.90;;;;;;5032839;28;20556;-49
2022/07/29 01:34:36;;;;;;;3.73;3.00;;;18.20;99.90;;;;;;5032426;28;20459;-45
2022/07/29 01:37:09;;;;;;;4.13;3.13;;;18.20;99.90;;;;;;5032379;28;20962;-51
2022/07/29 01:39:39;;;;;;;8.63;3.70;;;18.20;99.90;;;;;;5032341;28;20429;-48
2022/07/29 01:42:12;;;;;;;7.70;3.03;;;18.20;99.90;;;;;;5032714;28;20468;-49
2022/07/29 01:44:46;;;;;;;5.33;3.70;;;18.20;99.90;;;;;;5032298;28;20433;-51
2022/07/29 01:47:18;;;;;;;6.90;3.70;;;18.10;99.90;;;;;;5018670;28;20484;-46
2022/07/29 01:49:49;;;;;;;4.43;3.23;;;18.10;99.90;;;;;;5031898;28;20414;-48
2022/07/29 01:52:22;;;;;;;5.07;3.80;;;18.00;99.90;;;;;;5032127;28;20802;-50
2022/07/29 01:54:54;;;;;;;6.37;3.37;;;18.00;99.90;;;;;;5032553;28;20444;-48
2022/07/29 01:57:23;;;;;;;5.83;3.23;;;18.00;99.90;;;;;;5032672;28;20433;-45
2022/07/29 01:59:53;;;;;;;5.27;3.17;;;18.00;99.90;;;;;;5032756;28;20501;-47
2022/07/29 02:02:22;;;;;;;6.00;2.97;;;18.00;99.90;;;;;;5032225;28;20484;-48
2022/07/29 02:04:51;;;;;;;6.23;3.27;;;17.90;99.90;;;;;;5032464;28;20452;-47
2022/07/29 02:07:20;;;;;;;4.83;3.43;;;17.90;99.90;;;;;;5032439;28;20500;-47
2022/07/29 02:09:50;;;;;;;5.50;2.90;;;17.90;99.90;;;;;;5034762;28;20437;-47
2022/07/29 02:12:19;;;;;;;7.30;3.23;;;17.90;99.90;;;;;;5035683;28;20468;-49
2022/07/29 02:14:48;;;;;;;5.70;3.27;;;17.90;99.90;;;;;;5035666;28;20509;-45
2022/07/29 02:17:23;;;;;;;4.43;3.23;;;17.80;99.90;;;;;;5035634;28;20468;-48
2022/07/29 02:19:50;;;;;;;8.60;2.90;;;17.80;99.90;;;;;;5035587;28;20762;-46
2022/07/29 02:22:20;;;;;;;4.10;2.93;;;17.80;99.90;;;;;;5018653;28;20473;-51
2022/07/29 02:24:48;;;;;;;4.40;3.33;;;17.80;99.90;;;;;;5035455;28;20458;-47
2022/07/29 02:27:16;;;;;;;19.00;4.20;;;17.80;99.90;;;;;;5035318;28;20475;-48
2022/07/29 02:29:43;;;;;;;4.37;2.90;;;17.80;99.90;;;;;;5035397;28;20457;-48
2022/07/29 02:32:16;;;;;;;7.73;2.67;;;17.80;99.90;;;;;;5035350;28;20481;-49
2022/07/29 02:34:44;;;;;;;7.57;4.10;;;17.70;99.90;;;;;;5035820;28;20414;-47
2022/07/29 02:37:12;;;;;;;4.60;2.90;;;17.70;99.90;;;;;;5035212;28;20476;-48
2022/07/29 02:39:41;;;;;;;8.63;3.10;;;17.70;99.90;;;;;;5035304;28;20456;-49
2022/07/29 02:42:12;;;;;;;6.40;2.87;;;17.70;99.90;;;;;;5031203;28;20469;-52
2022/07/29 02:44:39;;;;;;;5.67;3.00;;;17.70;99.90;;;;;;5022540;28;20409;-47
2022/07/29 02:47:14;;;;;;;4.63;3.40;;;17.70;99.90;;;;;;5035031;28;20464;-49
2022/07/29 02:49:48;;;;;;;5.73;2.97;;;17.70;99.90;;;;;;5035220;28;20485;-46
2022/07/29 02:52:22;;;;;;;4.03;2.77;;;17.70;99.90;;;;;;5034957;28;20547;-53
2022/07/29 02:54:54;;;;;;;4.47;2.70;;;17.70;99.90;;;;;;5034661;28;20429;-52
2022/07/29 02:57:25;;;;;;;4.77;2.50;;;17.70;99.90;;;;;;5035077;28;20472;-53
2022/07/29 02:59:58;;;;;;;2.63;2.33;;;17.70;99.90;;;;;;5027497;28;20437;-50
2022/07/29 03:02:28;;;;;;;4.73;2.63;;;17.70;99.90;;;;;;5026169;27;20556;-50
2022/07/29 03:04:58;;;;;;;11.17;3.33;;;17.70;99.90;;;;;;5034575;28;20468;-42
2022/07/29 03:07:26;;;;;;;4.17;2.93;;;17.70;99.90;;;;;;5034873;28;20543;-51
2022/07/29 03:09:56;;;;;;;5.17;3.83;;;17.70;99.90;;;;;;5034872;28;20517;-48
2022/07/29 03:12:24;;;;;;;3.60;2.93;;;17.70;99.90;;;;;;5034765;28;20545;-48
2022/07/29 03:14:51;;;;;;;4.57;3.83;;;17.70;99.90;;;;;;5034223;28;20453;-49
2022/07/29 03:17:18;;;;;;;4.53;2.80;;;17.70;99.90;;;;;;5018303;28;20480;-50
2022/07/29 03:19:46;;;;;;;7.43;3.03;;;17.70;99.90;;;;;;5034166;28;20441;-46
2022/07/29 03:22:15;;;;;;;6.83;2.60;;;17.70;99.90;;;;;;5034822;28;20477;-47
2022/07/29 03:24:42;;;;;;;5.37;3.47;;;17.70;99.90;;;;;;5035010;28;20520;-44
2022/07/29 03:27:11;;;;;;;4.50;3.20;;;17.70;99.90;;;;;;5034413;28;20508;-45
2022/07/29 03:29:38;;;;;;;5.53;2.90;;;17.70;99.90;;;;;;5016220;28;20449;-50
2022/07/29 03:32:06;;;;;;;4.47;2.97;;;17.80;99.90;;;;;;5033105;28;20497;-44
2022/07/29 03:34:35;;;;;;;6.83;3.33;;;17.70;99.90;;;;;;5034559;28;20461;-48
2022/07/29 03:37:02;;;;;;;4.20;2.60;;;17.80;99.90;;;;;;5034296;28;20461;-47
2022/07/29 03:39:34;;;;;;;5.73;2.83;;;17.70;99.90;;;;;;5034566;28;20409;-49
2022/07/29 03:42:02;;;;;;;3.60;2.60;;;17.70;99.90;;;;;;5034209;28;20449;-51
2022/07/29 03:44:29;;;;;;;4.07;2.90;;;17.70;99.90;;;;;;5034174;28;20502;-49
2022/07/29 03:47:01;;;;;;;4.33;2.70;;;17.70;99.90;;;;;;5034254;28;20471;-49
2022/07/29 03:49:30;;;;;;;3.53;2.60;;;17.70;99.90;;;;;;5034409;28;20429;-46
2022/07/29 03:51:57;;;;;;;3.67;2.80;;;17.70;99.90;;;;;;5033939;28;20528;-48
2022/07/29 03:54:24;;;;;;;6.23;2.67;;;17.70;99.90;;;;;;5034014;28;20454;-45
2022/07/29 03:56:55;;;;;;;9.80;4.03;;;17.60;99.90;;;;;;5033895;28;20459;-46
2022/07/29 03:59:23;;;;;;;13.93;3.20;;;17.60;99.90;;;;;;5033825;28;20422;-49
2022/07/29 04:01:50;;;;;;;5.73;3.60;;;17.60;99.90;;;;;;5034023;28;20489;-46
2022/07/29 04:04:17;;;;;;;5.77;3.43;;;17.60;99.90;;;;;;5033933;28;20461;-47
2022/07/29 04:06:47;;;;;;;4.70;3.00;;;17.60;99.90;;;;;;5034241;28;20517;-47
2022/07/29 04:09:14;;;;;;;4.57;3.37;;;17.60;99.90;;;;;;5034030;28;20497;-50
2022/07/29 04:11:42;;;;;;;4.47;3.27;;;17.60;99.90;;;;;;5033676;28;20544;-49
2022/07/29 04:14:10;;;;;;;3.63;2.57;;;17.60;99.90;;;;;;5034000;28;20500;-44
2022/07/29 04:16:37;;;;;;;5.27;3.47;;;17.60;99.90;;;;;;5033757;28;20494;-51
2022/07/29 04:19:03;;;;;;;8.87;3.13;;;17.70;99.90;;;;;;5033652;28;20476;-48
2022/07/29 04:21:30;;;;;;;3.80;2.93;;;17.70;99.90;;;;;;5033592;28;20506;-50
2022/07/29 04:24:00;;;;;;;4.17;2.70;;;17.70;99.90;;;;;;5033084;28;20545;-49
2022/07/29 04:26:26;;;;;;;4.87;2.80;;;17.80;99.90;;;;;;5033815;28;20873;-51
2022/07/29 04:28:53;;;;;;;9.03;2.73;;;17.70;99.90;;;;;;5033974;28;20481;-47
2022/07/29 04:31:21;;;;;;;9.37;3.10;;;17.70;99.90;;;;;;5032784;28;20433;-46
2022/07/29 04:33:48;;;;;;;6.60;3.43;;;17.70;99.90;;;;;;5030670;28;20473;-51
2022/07/29 04:36:15;;;;;;;3.63;2.97;;;17.80;99.90;;;;;;5022761;28;20437;-46
2022/07/29 04:38:42;;;;;;;10.67;3.40;;;17.80;99.90;;;;;;5033466;28;20521;-50
2022/07/29 04:41:09;;;;;;;5.67;3.90;;;17.80;99.90;;;;;;5025937;28;20456;-53
2022/07/29 04:43:36;;;;;;;13.10;3.20;;;17.80;99.90;;;;;;5023628;28;20450;-47
2022/07/29 04:46:03;;;;;;;4.07;2.93;;;17.90;99.90;;;;;;5033441;28;20449;-43
2022/07/29 04:48:33;;;;;;;3.97;3.20;;;17.90;99.90;;;;;;5033198;28;20483;-45
2022/07/29 04:51:00;;;;;;;4.23;2.83;;;17.90;99.90;;;;;;5033745;28;20438;-49
2022/07/29 04:53:27;;;;;;;3.63;3.00;;;17.90;99.90;;;;;;5033515;28;20499;-46
2022/07/29 04:55:54;;;;;;;4.90;3.23;;;17.90;99.90;;;;;;5033671;28;20441;-49
2022/07/29 04:58:23;;;;;;;3.40;3.00;;;17.90;99.90;;;;;;5033223;28;20513;-51
2022/07/29 05:00:50;;;;;;;4.33;3.00;;;17.90;99.90;;;;;;5033100;28;20425;-45
2022/07/29 05:03:16;;;;;;;4.97;3.17;;;17.90;99.90;;;;;;5032928;28;20434;-50
2022/07/29 05:05:44;;;;;;;5.00;3.27;;;17.90;99.90;;;;;;5032878;28;20434;-46
2022/07/29 05:08:11;;;;;;;2.83;2.57;;;18.00;99.90;;;;;;5032781;28;20803;-50
2022/07/29 05:10:38;;;;;;;6.57;3.00;;;18.00;99.90;;;;;;5032888;28;20481;-49
2022/07/29 05:13:08;;;;;;;3.10;2.60;;;18.10;99.90;;;;;;5033058;28;20477;-49
2022/07/29 05:15:36;;;;;;;6.10;3.40;;;18.20;99.90;;;;;;5033249;28;20508;-47
2022/07/29 05:18:03;;;;;;;5.10;2.60;;;18.20;99.90;;;;;;5032589;28;20448;-49
2022/07/29 05:20:31;;;;;;;3.43;2.73;;;18.20;99.90;;;;;;5033314;28;20460;-43
2022/07/29 05:23:00;;;;;;;7.23;2.93;;;18.20;99.90;;;;;;5033114;28;20445;-48
2022/07/29 05:25:29;;;;;;;3.80;2.73;;;18.30;99.90;;;;;;5032657;28;20529;-48
2022/07/29 05:27:57;;;;;;;7.30;2.63;;;18.40;99.90;;;;;;5032629;28;20452;-48
2022/07/29 05:30:24;;;;;;;4.50;3.30;;;18.40;99.90;;;;;;5032941;28;20430;-48
2022/07/29 05:32:51;;;;;;;3.97;2.77;;;18.40;99.90;;;;;;5032506;28;20465;-50
2022/07/29 05:35:18;;;;;;;4.60;3.03;;;18.40;99.90;;;;;;5032279;28;20469;-50
2022/07/29 05:37:44;;;;;;;5.40;3.30;;;18.40;99.90;;;;;;5032680;28;20437;-46
2022/07/29 05:40:15;;;;;;;4.00;2.87;;;18.40;99.90;;;;;;5032407;28;20504;-44
2022/07/29 05:42:41;;;;;;;5.20;3.00;;;18.40;99.90;;;;;;5032317;28;20452;-45
2022/07/29 05:45:09;;;;;;;5.17;3.13;;;18.40;99.90;;;;;;5036052;28;20469;-51
2022/07/29 05:47:36;;;;;;;6.50;3.33;;;18.40;99.90;;;;;;5035985;28;20512;-50
2022/07/29 05:50:04;;;;;;;6.90;3.83;;;18.40;99.90;;;;;;5035972;28;20995;-49
2022/07/29 05:52:31;;;;;;;6.50;2.40;;;18.40;99.90;;;;;;5018744;28;20456;-45
2022/07/29 05:55:02;;;;;;;3.67;2.90;;;18.50;99.90;;;;;;5036046;28;20956;-51
2022/07/29 05:57:30;;;;;;;4.70;3.30;;;18.60;99.90;;;;;;5036049;28;20440;-46
2022/07/29 05:59:57;;;;;;;6.53;3.77;;;18.70;99.90;;;;;;5035566;28;20488;-44
2022/07/29 06:02:24;;;;;;;7.40;3.27;;;18.80;99.90;;;;;;5036241;28;20484;-47
2022/07/29 06:04:59;;;;;;;5.20;2.90;;;18.80;99.90;;;;;;5035810;28;20476;-48
2022/07/29 06:07:26;;;;;;;6.10;2.80;;;19.00;99.90;;;;;;5035580;28;20441;-47
2022/07/29 06:09:53;;;;;;;6.03;2.50;;;19.20;99.90;;;;;;5035897;28;20528;-48
2022/07/29 06:12:20;;;;;;;4.57;2.73;;;19.30;99.90;;;;;;5025823;28;20425;-52
2022/07/29 06:14:48;;;;;;;5.70;2.83;;;19.40;99.90;;;;;;5028457;27;20485;-50
2022/07/29 06:17:17;;;;;;;4.57;3.10;;;19.50;99.90;;;;;;5035696;28;20460;-50
2022/07/29 06:19:43;;;;;;;3.87;3.07;;;19.60;99.90;;;;;;5035645;28;20556;-47
2022/07/29 06:22:10;;;;;;;3.87;3.07;;;19.70;99.90;;;;;;5035229;28;20461;-46
2022/07/29 06:24:43;;;;;;;6.87;2.93;;;19.90;99.90;;;;;;5034736;28;20501;-52
2022/07/29 06:27:10;;;;;;;6.20;2.73;;;20.00;99.90;;;;;;5020222;28;20844;-50
2022/07/29 06:29:37;;;;;;;5.20;3.17;;;20.20;99.90;;;;;;5033298;28;20513;-46
2022/07/29 06:32:06;;;;;;;3.93;2.43;;;20.30;99.90;;;;;;5036063;28;20448;-44
2022/07/29 06:34:33;;;;;;;4.97;2.90;;;20.50;99.90;;;;;;5035532;28;20511;-42
2022/07/29 06:37:00;;;;;;;6.50;2.53;;;20.60;99.90;;;;;;5035274;28;20449;-44
2022/07/29 06:39:28;;;;;;;3.10;2.60;;;20.60;99.90;;;;;;5035012;28;20464;-48
2022/07/29 06:41:55;;;;;;;4.57;3.37;;;20.60;99.90;;;;;;5035135;28;20475;-47
2022/07/29 06:44:22;;;;;;;7.97;2.90;;;20.70;99.90;;;;;;5035591;28;20504;-47
2022/07/29 06:46:51;;;;;;;6.07;3.07;;;20.70;99.90;;;;;;5034754;28;20465;-49
2022/07/29 06:49:19;;;;;;;7.73;3.67;;;20.80;99.90;;;;;;5034996;27;20479;-42
2022/07/29 06:51:47;;;;;;;4.23;2.33;;;20.80;99.90;;;;;;5035323;28;20445;-49
2022/07/29 06:54:14;;;;;;;5.30;2.87;;;20.80;99.90;;;;;;5035020;28;20485;-49
2022/07/29 06:56:42;;;;;;;4.07;2.73;;;20.80;99.90;;;;;;5035559;28;20437;-47
2022/07/29 06:59:10;;;;;;;7.83;2.80;;;20.80;99.90;;;;;;5035749;28;20571;-48
2022/07/29 07:01:37;;;;;;;4.40;2.87;;;20.90;99.90;;;;;;5035557;28;20525;-44
2022/07/29 07:04:04;;;;;;;8.80;3.20;;;21.00;99.90;;;;;;5035752;28;20949;-43
2022/07/29 07:06:32;;;;;;;5.30;3.20;;;21.00;99.90;;;;;;5035604;28;20476;-49
2022/07/29 07:08:59;;;;;;;4.57;2.30;;;21.10;99.90;;;;;;5036067;28;20428;-52
2022/07/29 07:11:26;;;;;;;6.00;3.30;;;21.20;99.90;;;;;;5035666;28;20461;-45
2022/07/29 07:13:53;;;;;;;5.90;3.00;;;21.30;99.90;;;;;;5035531;28;20564;-51
2022/07/29 07:16:19;;;;;;;7.60;3.87;;;21.40;99.90;;;;;;5035536;28;20449;-46
2022/07/29 07:18:46;;;;;;;4.17;2.50;;;21.60;99.90;;;;;;5034838;28;20526;-43
2022/07/29 07:21:13;;;;;;;3.07;2.77;;;21.90;99.90;;;;;;5035217;28;20506;-46
2022/07/29 07:23:41;;;;;;;9.50;2.87;;;22.10;99.90;;;;;;5034737;28;20463;-47
2022/07/29 07:26:08;;;;;;;5.47;3.10;;;22.50;99.90;;;;;;5022046;28;20471;-51
2022/07/29 07:28:35;;;;;;;4.57;3.60;;;22.80;99.90;;;;;;5029490;28;20492;-46
2022/07/29 07:31:02;;;;;;;9.73;3.57;;;23.40;99.90;;;;;;5035015;28;20497;-51
2022/07/29 07:33:28;;;;;;;6.50;3.17;;;23.90;99.90;;;;;;5034051;28;20477;-46
2022/07/29 07:35:57;;;;;;;5.70;3.60;;;24.20;99.90;;;;;;5034711;28;20536;-49
2022/07/29 07:38:24;;;;;;;3.87;3.07;;;24.30;98.70;;;;;;5034623;28;20450;-49
2022/07/29 07:40:52;;;;;;;7.27;3.43;;;24.50;97.40;;;;;;5034623;28;20478;-51
2022/07/29 07:43:19;;;;;;;7.60;3.50;;;24.80;96.30;;;;;;5034683;28;20429;-46
2022/07/29 07:45:48;;;;;;;5.20;3.40;;;24.90;95.80;;;;;;5034332;28;20465;-45
2022/07/29 07:48:15;;;;;;;4.40;2.60;;;25.20;94.80;;;;;;5034479;28;20454;-50
2022/07/29 07:50:42;;;;;;;6.10;3.27;;;26.30;93.20;;;;;;5033712;28;20476;-48
2022/07/29 07:53:09;;;;;;;4.63;2.67;;;27.80;87.10;;;;;;5032854;28;20452;-45
2022/07/29 07:55:41;;;;;;;5.47;2.80;;;29.30;78.40;;;;;;5033486;28;20514;-45
2022/07/29 07:58:09;;;;;;;4.23;3.33;;;31.00;68.90;;;;;;5029965;28;20410;-50
2022/07/29 08:00:37;;;;;;;4.20;3.00;;;32.60;61.80;;;;;;5034020;28;20525;-50
2022/07/29 08:03:04;;;;;;;3.30;2.57;;;33.80;57.00;;;;;;5032761;28;20488;-51
2022/07/29 08:05:31;;;;;;;3.10;2.60;;;34.90;52.10;;;;;;5032078;28;20457;-49
2022/07/29 08:07:57;;;;;;;4.20;3.00;;;35.60;49.50;;;;;;5032985;28;20441;-50
2022/07/29 08:13:11;;;;;;;3.50;3.20;;;37.00;45.80;;;;;;5033009;28;20603;-52
2022/07/29 08:15:40;;;;;;;5.37;3.70;;;37.10;44.70;;;;;;5031237;28;20425;-50
2022/07/29 08:18:08;;;;;;;4.30;3.00;;;36.60;44.50;;;;;;5029056;28;20476;-49
2022/07/29 08:20:36;;;;;;;4.90;3.67;;;36.50;44.40;;;;;;5031446;28;20437;-45
2022/07/29 08:23:04;;;;;;;5.00;2.97;;;36.50;44.70;;;;;;5030410;28;20556;-50
2022/07/29 08:25:31;;;;;;;3.37;3.07;;;36.40;43.30;;;;;;5028648;28;20471;-45
2022/07/29 08:27:58;;;;;;;5.77;4.03;;;36.20;44.30;;;;;;5030622;28;20520;-48
2022/07/29 08:30:26;;;;;;;5.70;4.23;;;36.30;44.00;;;;;;5031566;28;20536;-52
2022/07/29 08:32:53;;;;;;;5.63;3.43;;;36.70;43.30;;;;;;5032968;28;20472;-48
2022/07/29 08:35:20;;;;;;;3.90;3.00;;;37.20;42.10;;;;;;5031203;28;20485;-50
2022/07/29 08:37:47;;;;;;;4.90;3.07;;;37.10;41.50;;;;;;5031641;28;20475;-48
2022/07/29 08:40:15;;;;;;;3.03;2.80;;;36.60;42.10;;;;;;5025740;28;20481;-53
2022/07/29 08:42:42;;;;;;;3.90;2.70;;;35.80;43.60;;;;;;5032821;28;20540;-43
2022/07/29 08:45:10;;;;;;;7.53;3.07;;;34.90;43.90;;;;;;5034331;28;20438;-46
2022/07/29 08:47:40;;;;;;;3.00;2.50;;;34.50;44.30;;;;;;5016802;28;20534;-56
2022/07/29 08:50:08;;;;;;;4.33;2.70;;;34.40;44.50;;;;;;5029533;28;20445;-50
2022/07/29 08:52:37;;;;;;;3.20;2.60;;;34.40;44.20;;;;;;5030092;28;20949;-53
2022/07/29 08:55:06;;;;;;;4.60;3.67;;;34.30;44.40;;;;;;5027607;28;20504;-48
2022/07/29 08:57:34;;;;;;;3.20;2.43;;;34.00;44.90;;;;;;5029216;28;20473;-54
2022/07/29 09:00:04;;;;;;;5.00;3.10;;;33.30;45.40;;;;;;5029201;28;20541;-51
2022/07/29 09:02:37;;;;;;;4.50;3.70;;;32.60;46.90;;;;;;5028678;28;20514;-48
2022/07/29 09:05:06;;;;;;;3.50;2.90;;;31.60;47.40;;;;;;5030053;28;20438;-49
2022/07/29 09:07:35;;;;;;;7.43;2.70;;;30.90;48.90;;;;;;5028344;28;20537;-49
2022/07/29 09:10:04;;;;;;;4.40;3.00;;;30.40;49.40;;;;;;5027656;28;20539;-52
2022/07/29 09:12:31;;;;;;;5.30;4.30;;;30.10;49.70;;;;;;5029744;28;20477;-51
2022/07/29 09:14:58;;;;;;;4.30;2.87;;;30.20;50.40;;;;;;5029840;28;20500;-51
2022/07/29 09:17:41;;;;;;;7.40;3.53;;;30.80;50.30;;;;;;5028714;28;20489;-50
2022/07/29 09:20:12;;;;;;;6.17;3.17;;;31.90;49.60;;;;;;5030070;28;20455;-48
2022/07/29 09:22:39;;;;;;;4.23;2.90;;;32.90;47.80;;;;;;5031463;28;20453;-52
2022/07/29 09:25:07;;;;;;;4.00;2.90;;;33.50;46.80;;;;;;5033898;28;20445;-54
2022/07/29 09:27:35;;;;;;;6.60;3.27;;;34.10;46.00;;;;;;5033120;28;20545;-53
2022/07/29 09:30:05;;;;;;;4.27;2.87;;;34.70;44.90;;;;;;5014475;28;20791;-50
2022/07/29 09:32:32;;;;;;;3.87;3.07;;;35.10;44.10;;;;;;5029391;28;20457;-53
2022/07/29 09:35:16;;;;;;;5.10;3.60;;;35.00;44.10;;;;;;5030970;28;20466;-47
2022/07/29 09:37:43;;;;;;;5.30;2.80;;;34.20;44.70;;;;;;5031975;28;20462;-52
2022/07/29 09:40:15;;;;;;;6.97;3.30;;;33.30;45.20;;;;;;5027689;28;20486;-49
2022/07/29 09:42:46;;;;;;;3.73;3.33;;;32.60;46.30;;;;;;5027150;28;20475;-50
2022/07/29 09:45:26;;;;;;;5.77;3.20;;;31.80;47.20;;;;;;5026950;28;20464;-49
2022/07/29 09:47:53;;;;;;;4.37;2.93;;;31.20;47.60;;;;;;5028423;28;20508;-47
2022/07/29 09:50:23;;;;;;;9.30;3.13;;;30.50;48.90;;;;;;5028385;28;20449;-50
2022/07/29 09:52:53;;;;;;;9.00;4.77;;;30.20;50.00;;;;;;5025825;28;20477;-46
2022/07/29 09:55:20;;;;;;;9.23;2.83;;;29.90;50.90;;;;;;5027373;28;20477;-52
2022/07/29 09:57:48;;;;;;;5.13;2.67;;;29.70;50.90;;;;;;5029771;28;20483;-50
2022/07/29 10:00:17;;;;;;;5.60;3.90;;;30.00;49.60;;;;;;5031579;28;20422;-52
2022/07/29 10:02:45;;;;;;;4.10;3.50;;;30.30;49.70;;;;;;5032902;27;20453;-51
2022/07/29 10:05:23;;;;;;;7.50;3.30;;;30.80;49.80;;;;;;5032872;28;20422;-46
2022/07/29 10:07:51;;;;;;;6.13;2.63;;;31.50;47.70;;;;;;5028845;28;20429;-45
2022/07/29 10:10:26;;;;;;;5.10;3.17;;;31.80;46.90;;;;;;5030906;28;20465;-46
2022/07/29 10:12:56;;;;;;;6.30;2.37;;;32.10;46.10;;;;;;5032613;28;20441;-46
2022/07/29 10:15:26;;;;;;;2.83;2.13;;;32.30;45.50;;;;;;5027809;28;20465;-48
2022/07/29 10:17:54;;;;;;;3.10;2.20;;;32.90;45.20;;;;;;5028789;28;20473;-52
2022/07/29 10:20:24;;;;;;;3.87;2.20;;;33.50;44.00;;;;;;5031079;28;20449;-51
2022/07/29 10:22:52;;;;;;;4.53;2.20;;;33.70;42.80;;;;;;5027610;28;20915;-44
2022/07/29 10:25:20;;;;;;;4.30;2.60;;;33.50;43.50;;;;;;5029945;28;20476;-51
2022/07/29 10:27:48;;;;;;;3.47;2.50;;;33.10;43.20;;;;;;5026999;28;20460;-49
2022/07/29 10:30:16;;;;;;;5.43;2.43;;;32.80;43.70;;;;;;5032488;28;20449;-54
2022/07/29 10:32:55;;;;;;;3.43;2.20;;;32.20;43.50;;;;;;5017224;28;20528;-50
2022/07/29 10:35:45;;;;;;;2.53;2.30;;;31.80;44.30;;;;;;5028619;28;20473;-54
2022/07/29 10:38:35;;;;;;;4.07;2.93;;;31.40;44.90;;;;;;5032252;28;20449;-49
2022/07/29 10:41:28;;;;;;;5.30;2.47;;;31.10;45.60;;;;;;5032135;28;20525;-52
2022/07/29 10:44:00;;;;;;;2.87;2.20;;;31.10;45.10;;;;;;5030740;28;20493;-49
2022/07/29 10:46:28;;;;;;;5.47;2.70;;;31.20;45.90;;;;;;5032375;28;20425;-49
2022/07/29 10:49:06;;;;;;;5.20;2.10;;;31.20;46.40;;;;;;5033454;28;20497;-50
2022/07/29 10:52:00;;;;;;;3.57;2.73;;;31.60;45.20;;;;;;5034659;28;20449;-42
2022/07/29 10:54:46;;;;;;;3.57;2.87;;;32.30;45.30;;;;;;5035155;28;20493;-53
2022/07/29 10:57:26;;;;;;;4.47;2.50;;;32.50;45.20;;;;;;5035495;28;20809;-46
2022/07/29 11:00:31;;;;;;;4.90;3.10;;;32.50;44.90;;;;;;5035264;28;20473;-50
2022/07/29 11:02:58;;;;;;;7.20;3.50;;;32.50;44.20;;;;;;5031385;28;20468;-51
2022/07/29 11:05:29;;;;;;;5.93;2.50;;;32.00;44.00;;;;;;5031150;28;20745;-51
2022/07/29 11:08:23;;;;;;;2.90;2.20;;;31.50;44.80;;;;;;5027354;28;20461;-54
2022/07/29 11:10:51;;;;;;;2.40;2.13;;;30.90;44.30;;;;;;5032594;28;20438;-56
2022/07/29 11:13:51;;;;;;;2.87;2.47;;;30.60;45.60;;;;;;5031887;28;20425;-52
2022/07/29 11:16:22;;;;;;;6.33;2.90;;;30.40;46.90;;;;;;5029446;28;20507;-51
2022/07/29 11:19:20;;;;;;;4.07;2.90;;;30.20;47.20;;;;;;5034021;28;20445;-51
2022/07/29 11:21:49;;;;;;;2.93;2.50;;;29.90;46.70;;;;;;5033266;28;20449;-54
2022/07/29 11:24:18;;;;;;;5.03;3.03;;;29.80;48.00;;;;;;5033161;28;20457;-53
2022/07/29 11:26:45;;;;;;;3.30;2.90;;;29.90;48.10;;;;;;5033812;28;21133;-53
2022/07/29 11:29:22;;;;;;;3.43;2.27;;;29.90;47.80;;;;;;5033371;28;20487;-54
2022/07/29 11:31:54;;;;;;;3.40;2.50;;;30.20;47.60;;;;;;5033670;28;20508;-51
2022/07/29 11:34:27;;;;;;;4.70;2.70;;;30.40;46.90;;;;;;5034732;28;20500;-51
2022/07/29 11:37:22;;;;;;;5.03;3.07;;;30.50;47.50;;;;;;5034601;28;20485;-52
2022/07/29 11:40:18;;;;;;;5.77;3.33;;;30.60;47.90;;;;;;5032768;28;20469;-51
2022/07/29 11:42:46;;;;;;;6.00;4.47;;;30.70;47.40;;;;;;5029063;28;20441;-48
2022/07/29 11:45:17;;;;;;;6.37;5.00;;;30.80;46.90;;;;;;5034723;28;20521;-55
2022/07/29 11:47:54;;;;;;;4.60;3.30;;;30.80;47.00;;;;;;5034326;28;20479;-52
2022/07/29 11:50:35;;;;;;;5.80;3.10;;;30.80;48.40;;;;;;5032998;28;20453;-57
2022/07/29 11:53:10;;;;;;;5.00;3.27;;;30.90;48.80;;;;;;5033596;28;20433;-53
2022/07/29 11:55:41;;;;;;;6.60;3.90;;;30.80;48.40;;;;;;5034255;28;20488;-56
2022/07/29 11:58:09;;;;;;;5.20;3.57;;;30.80;47.90;;;;;;5034319;28;20479;-55
2022/07/29 12:00:38;;;;;;;5.20;3.40;;;30.80;48.60;;;;;;5034486;28;20475;-52
2022/07/29 12:03:09;;;;;;;4.20;3.20;;;30.80;48.50;;;;;;5034813;28;20425;-55
2022/07/29 12:05:39;;;;;;;5.03;4.03;;;30.80;49.80;;;;;;5034306;28;20520;-50
2022/07/29 12:08:12;;;;;;;3.93;2.77;;;30.80;48.90;;;;;;5034570;28;20417;-55
2022/07/29 12:10:40;;;;;;;6.13;3.47;;;30.80;48.50;;;;;;5033386;28;20475;-57
2022/07/29 12:13:07;;;;;;;6.93;5.73;;;30.80;48.90;;;;;;5034754;28;20473;-45
2022/07/29 12:15:35;;;;;;;5.67;3.80;;;30.70;50.20;;;;;;5033097;28;20565;-47
2022/07/29 12:18:13;;;;;;;5.60;3.90;;;30.70;50.50;;;;;;5033024;27;20513;-52
2022/07/29 12:20:40;;;;;;;12.00;7.10;;;30.70;50.10;;;;;;5033470;28;20461;-49
2022/07/29 12:23:09;;;;;;;7.23;5.17;;;30.80;51.20;;;;;;5034384;28;20453;-55
2022/07/29 12:25:37;;;;;;;6.33;5.47;;;30.80;50.60;;;;;;5033429;28;20457;-53
2022/07/29 12:28:07;;;;;;;6.17;4.67;;;30.50;51.00;;;;;;5031081;28;20433;-51
2022/07/29 12:30:42;;;;;;;4.73;3.40;;;30.40;51.10;;;;;;5032846;28;20500;-52
2022/07/29 12:33:19;;;;;;;5.07;3.47;;;30.30;50.80;;;;;;5033307;28;20483;-52
2022/07/29 12:35:48;;;;;;;6.90;5.83;;;30.20;50.80;;;;;;5033243;28;20489;-49
2022/07/29 12:38:17;;;;;;;4.50;4.07;;;30.00;51.20;;;;;;5033206;28;20498;-56
2022/07/29 12:40:46;;;;;;;6.60;4.70;;;30.00;50.90;;;;;;5033225;28;20485;-56
2022/07/29 12:43:16;;;;;;;4.23;3.80;;;30.00;51.70;;;;;;5033095;28;20441;-49
2022/07/29 12:45:45;;;;;;;6.07;3.53;;;30.00;51.30;;;;;;5033675;27;20457;-52
2022/07/29 12:48:12;;;;;;;3.53;3.23;;;29.90;51.00;;;;;;5033493;28;20446;-55
2022/07/29 12:50:56;;;;;;;5.63;3.10;;;29.80;51.20;;;;;;5033501;28;20533;-52
2022/07/29 12:53:23;;;;;;;5.40;4.60;;;29.90;51.60;;;;;;5031316;28;20436;-48
2022/07/29 12:55:52;;;;;;;8.47;7.07;;;30.00;51.90;;;;;;5032980;28;20485;-48
2022/07/29 12:58:33;;;;;;;5.57;3.50;;;30.00;51.90;;;;;;5034329;27;20515;-50
2022/07/29 13:01:03;;;;;;;4.40;3.43;;;30.10;51.20;;;;;;5034208;28;20479;-50
2022/07/29 13:03:42;;;;;;;6.33;5.50;;;30.20;51.20;;;;;;5032916;28;20453;-52